Terminal Aerodrome Forecast
Issued by NWS Houston/Galveston, TX

Home | Current Version | Previous Version | Text Only | Print | Product List | Glossary On
Versions: 1 2 3 4 5 6 7 8 9 10 11 12 13 14 15 16 17 18 19 20 21 22 23
000
FTUS44 KHGX 031226 AAA
TAFGLS
TAF AMD
KGLS 031226Z 0312/0412 04009KT 4SM SHRA VCTS SCT005 OVC015CB
      TEMPO 0312/0316 1SM TSRA OVC005CB
     FM031900 12015KT 3SM TSRA BR SCT004 BKN007 OVC010CB
     FM040000 10011KT 4SM TSRA BR BKN007 OVC010CB
     FM040800 36009KT 3SM SHRA VCTS OVC007CB=

USA.gov is the U.S. government's official web portal to all federal, state and local government web resources and services.